Brownton, Minnesota
Current Conditions -  °F | °C
As of 9:32 AM on Thursday 30 Oct 2014 (Local Time) from KHCD Reporting Station
Overcast Overcast  
Wind Chill: 41°   Ceiling: 5000
Heat Index: 41°   Visibility: 10mi
Dew Point: 37°   Wind: 3mph
Humidity: 87%   Direction: 30°NNE
Pressure: 30.07"   Gusts: NA
Location:  44.73°N, 94.35°W
Report Text: KHCD 301432Z AUTO 03003KT 10SM OVC050 05/03 A3007 RMK AO2 T00500030
Loading
Personal Weather Stations






























Interactive Weather Map
Tropical Storm Tracking
New forecast layout! Learn more

10-Day Weather Forecast

Advertisements
Track Severe Weather on mobile